EXS5M LGKO-EGNM
Flight info
| Callsign | EXS5M |
|---|---|
| Flight time | 3h 52m |
| Altitude | 40000 |
| Route | LARKI UL609 MES DCT GIKAS DCT FSK UL608 DISOR DCT LONTA UL608 DOLEV DCT MITNO DCT NOVLO DCT PODET DCT SIMBA DCT INBED DCT RAVLO Y70 BATLI DCT LBA |
| Aircraft | B738/M-SDFGHIJ3J4J7M3RWXY/LB1 |
Departure
| Time | 2026-05-05 20:24 |
|---|---|
| Airport | Kos International Airport "Ippokratis" (LGKO) |
Arrival
| Time | 2026-05-06 00:17 |
|---|---|
| Airport | Leeds Bradford Airport (EGNM) |
| Time | Latitude | Longitude | Altitude | Speed | Heading |
|---|---|---|---|---|---|
| 2026-05-05 19:47 | 36.80006 | 27.09028 | 418 ft | 0 kts | 58° |
| 2026-05-05 20:15 | 36.80005 | 27.09026 | 418 ft | 2 kts | 58° |
| 2026-05-05 20:15 | 36.79993 | 27.09001 | 409 ft | 2 kts | 58° |
| 2026-05-05 20:16 | 36.79982 | 27.08976 | 410 ft | 4 kts | 79° |
| 2026-05-05 20:16 | 36.79984 | 27.08947 | 407 ft | 4 kts | 132° |
| 2026-05-05 20:16 | 36.80004 | 27.08929 | 407 ft | 4 kts | 148° |
| 2026-05-05 20:16 | 36.80010 | 27.08924 | 407 ft | 0 kts | 148° |
| 2026-05-05 20:19 | 36.79998 | 27.08933 | 411 ft | 5 kts | 148° |
| 2026-05-05 20:20 | 36.79939 | 27.08974 | 418 ft | 14 kts | 162° |
| 2026-05-05 20:20 | 36.79872 | 27.08982 | 408 ft | 15 kts | 177° |
| 2026-05-05 20:20 | 36.79773 | 27.08987 | 415 ft | 14 kts | 178° |
| 2026-05-05 20:20 | 36.79649 | 27.08992 | 418 ft | 13 kts | 176° |
| 2026-05-05 20:21 | 36.79585 | 27.09016 | 409 ft | 16 kts | 152° |
| 2026-05-05 20:21 | 36.79466 | 27.09108 | 416 ft | 24 kts | 148° |
| 2026-05-05 20:21 | 36.79307 | 27.09232 | 409 ft | 31 kts | 148° |
| 2026-05-05 20:21 | 36.79102 | 27.09392 | 400 ft | 37 kts | 148° |
| 2026-05-05 20:22 | 36.78888 | 27.09557 | 396 ft | 30 kts | 148° |
| 2026-05-05 20:22 | 36.78747 | 27.09670 | 392 ft | 23 kts | 147° |
| 2026-05-05 20:22 | 36.78644 | 27.09749 | 391 ft | 13 kts | 152° |
| 2026-05-05 20:22 | 36.78564 | 27.09777 | 388 ft | 6 kts | 168° |
| 2026-05-05 20:23 | 36.78553 | 27.09805 | 387 ft | 2 kts | 51° |
| 2026-05-05 20:23 | 36.78565 | 27.09806 | 387 ft | 1 kts | 354° |
| 2026-05-05 20:23 | 36.78608 | 27.09775 | 390 ft | 26 kts | 328° |
| 2026-05-05 20:23 | 36.78971 | 27.09493 | 396 ft | 96 kts | 328° |
| 2026-05-05 20:24 | 36.79706 | 27.08920 | 418 ft | 152 kts | 328° |
| 2026-05-05 20:24 | 36.80653 | 27.08174 | 909 ft | 165 kts | 327° |
| 2026-05-05 20:24 | 36.81575 | 27.07272 | 1613 ft | 173 kts | 307° |
| 2026-05-05 20:24 | 36.81997 | 27.05831 | 2225 ft | 188 kts | 278° |
| 2026-05-05 20:25 | 36.81878 | 27.04129 | 2709 ft | 205 kts | 269° |
| 2026-05-05 20:25 | 36.82135 | 27.02382 | 3201 ft | 204 kts | 295° |
| 2026-05-05 20:25 | 36.82759 | 27.00823 | 3862 ft | 206 kts | 303° |
| 2026-05-05 20:25 | 36.83576 | 26.99197 | 4091 ft | 230 kts | 308° |
| 2026-05-05 20:26 | 36.84529 | 26.97589 | 4822 ft | 234 kts | 309° |
| 2026-05-05 20:26 | 36.85495 | 26.95923 | 5540 ft | 237 kts | 308° |
| 2026-05-05 20:26 | 36.86565 | 26.94439 | 6382 ft | 232 kts | 331° |
| 2026-05-05 20:26 | 36.88099 | 26.93912 | 7152 ft | 230 kts | 352° |
| 2026-05-05 20:27 | 36.89703 | 26.93637 | 7837 ft | 234 kts | 351° |
| 2026-05-05 20:27 | 36.91353 | 26.93340 | 8336 ft | 248 kts | 352° |
| 2026-05-05 20:27 | 36.93102 | 26.93018 | 8854 ft | 259 kts | 351° |
| 2026-05-05 20:27 | 36.94875 | 26.92686 | 9559 ft | 262 kts | 352° |
| 2026-05-05 20:28 | 36.96683 | 26.92341 | 10271 ft | 264 kts | 352° |
| 2026-05-05 20:28 | 36.98569 | 26.91979 | 10516 ft | 286 kts | 351° |
| 2026-05-05 20:28 | 37.00615 | 26.91582 | 10680 ft | 307 kts | 351° |
| 2026-05-05 20:28 | 37.02796 | 26.91157 | 10955 ft | 324 kts | 351° |
| 2026-05-05 20:29 | 37.05023 | 26.90720 | 11526 ft | 329 kts | 351° |
| 2026-05-05 20:29 | 37.07303 | 26.90270 | 12277 ft | 331 kts | 351° |
| 2026-05-05 20:29 | 37.09604 | 26.89816 | 12981 ft | 335 kts | 351° |
| 2026-05-05 20:29 | 37.11898 | 26.89363 | 13670 ft | 339 kts | 351° |
| 2026-05-05 20:30 | 37.14245 | 26.88898 | 14337 ft | 342 kts | 350° |
| 2026-05-05 20:30 | 37.16621 | 26.88428 | 15015 ft | 345 kts | 350° |
| 2026-05-05 20:30 | 37.18980 | 26.87960 | 15680 ft | 349 kts | 350° |
| 2026-05-05 20:30 | 37.21397 | 26.87481 | 16337 ft | 352 kts | 350° |
| 2026-05-05 20:31 | 37.23845 | 26.86995 | 16987 ft | 356 kts | 349° |
| 2026-05-05 20:31 | 37.26311 | 26.86505 | 17623 ft | 360 kts | 349° |
| 2026-05-05 20:31 | 37.28795 | 26.86011 | 18279 ft | 363 kts | 349° |
| 2026-05-05 20:31 | 37.31283 | 26.85516 | 18822 ft | 367 kts | 349° |
| 2026-05-05 20:32 | 37.33811 | 26.85013 | 19444 ft | 368 kts | 349° |
| 2026-05-05 20:32 | 37.36340 | 26.84502 | 20087 ft | 368 kts | 347° |
| 2026-05-05 20:32 | 37.38802 | 26.83598 | 20676 ft | 368 kts | 336° |
| 2026-05-05 20:32 | 37.41101 | 26.82192 | 21272 ft | 368 kts | 329° |
| 2026-05-05 20:33 | 37.43186 | 26.80377 | 21836 ft | 370 kts | 321° |
| 2026-05-05 20:33 | 37.45154 | 26.78271 | 22396 ft | 372 kts | 320° |
| 2026-05-05 20:33 | 37.47116 | 26.76125 | 22939 ft | 374 kts | 320° |
| 2026-05-05 20:33 | 37.49084 | 26.73967 | 23477 ft | 376 kts | 320° |
| 2026-05-05 20:34 | 37.51070 | 26.71799 | 23959 ft | 378 kts | 320° |
| 2026-05-05 20:34 | 37.53071 | 26.69623 | 24391 ft | 380 kts | 320° |
| 2026-05-05 20:34 | 37.55083 | 26.67442 | 24811 ft | 382 kts | 320° |
| 2026-05-05 20:34 | 37.57104 | 26.65255 | 25218 ft | 384 kts | 320° |
| 2026-05-05 20:35 | 37.59134 | 26.63059 | 25640 ft | 385 kts | 320° |
| 2026-05-05 20:35 | 37.61149 | 26.60876 | 26042 ft | 387 kts | 320° |
| 2026-05-05 20:35 | 37.63200 | 26.58653 | 26424 ft | 389 kts | 320° |
| 2026-05-05 20:35 | 37.65265 | 26.56415 | 26788 ft | 391 kts | 320° |
| 2026-05-05 20:36 | 37.67335 | 26.54169 | 27210 ft | 392 kts | 320° |
| 2026-05-05 20:36 | 37.69411 | 26.51914 | 27583 ft | 393 kts | 320° |
| 2026-05-05 20:36 | 37.71466 | 26.49673 | 27918 ft | 396 kts | 320° |
| 2026-05-05 20:36 | 37.73561 | 26.47384 | 28259 ft | 398 kts | 320° |
| 2026-05-05 20:37 | 37.75665 | 26.45085 | 28604 ft | 400 kts | 320° |
| 2026-05-05 20:37 | 37.77779 | 26.42772 | 28944 ft | 401 kts | 320° |
| 2026-05-05 20:37 | 37.79868 | 26.40484 | 29264 ft | 403 kts | 320° |
| 2026-05-05 20:37 | 37.81992 | 26.38157 | 29620 ft | 404 kts | 320° |
| 2026-05-05 20:38 | 37.84120 | 26.35824 | 30075 ft | 403 kts | 320° |
| 2026-05-05 20:38 | 37.86241 | 26.33498 | 30498 ft | 401 kts | 320° |
| 2026-05-05 20:38 | 37.88347 | 26.31189 | 30866 ft | 400 kts | 320° |
| 2026-05-05 20:38 | 37.90454 | 26.28883 | 31180 ft | 400 kts | 320° |
| 2026-05-05 20:39 | 37.92541 | 26.26598 | 31498 ft | 400 kts | 320° |
| 2026-05-05 20:39 | 37.94648 | 26.24289 | 31848 ft | 399 kts | 320° |
| 2026-05-05 20:39 | 37.96745 | 26.21990 | 32289 ft | 396 kts | 320° |
| 2026-05-05 20:39 | 37.98822 | 26.19708 | 32653 ft | 395 kts | 320° |
| 2026-05-05 20:40 | 38.00902 | 26.17423 | 32950 ft | 395 kts | 320° |
| 2026-05-05 20:40 | 38.02963 | 26.15156 | 33258 ft | 395 kts | 320° |
| 2026-05-05 20:40 | 38.05039 | 26.12872 | 33612 ft | 393 kts | 320° |
| 2026-05-05 20:40 | 38.07107 | 26.10595 | 33964 ft | 392 kts | 320° |
| 2026-05-05 20:41 | 38.09168 | 26.08324 | 34242 ft | 392 kts | 320° |
| 2026-05-05 20:41 | 38.11202 | 26.06082 | 34456 ft | 393 kts | 320° |
| 2026-05-05 20:41 | 38.13274 | 26.03797 | 34615 ft | 395 kts | 319° |
| 2026-05-05 20:42 | 38.17470 | 25.99162 | 34913 ft | 400 kts | 319° |
| 2026-05-05 20:42 | 38.19568 | 25.96841 | 35188 ft | 399 kts | 319° |
| 2026-05-05 20:42 | 38.21658 | 25.94528 | 35468 ft | 397 kts | 319° |
| 2026-05-05 20:42 | 38.23735 | 25.92227 | 35762 ft | 396 kts | 319° |
| 2026-05-05 20:43 | 38.25802 | 25.89975 | 35978 ft | 396 kts | 321° |
| 2026-05-05 20:43 | 38.27964 | 25.87795 | 36197 ft | 396 kts | 322° |
| 2026-05-05 20:43 | 38.30159 | 25.85667 | 36397 ft | 397 kts | 322° |
| 2026-05-05 20:43 | 38.32374 | 25.83544 | 36581 ft | 398 kts | 322° |
| 2026-05-05 20:44 | 38.34562 | 25.81447 | 36780 ft | 398 kts | 322° |
| 2026-05-05 20:44 | 38.36774 | 25.79318 | 36987 ft | 398 kts | 322° |
| 2026-05-05 20:44 | 38.38984 | 25.77180 | 37176 ft | 398 kts | 322° |
| 2026-05-05 20:44 | 38.41197 | 25.75030 | 37348 ft | 400 kts | 322° |
| 2026-05-05 20:45 | 38.45642 | 25.70695 | 37636 ft | 402 kts | 322° |
| 2026-05-05 20:45 | 38.47860 | 25.68527 | 37881 ft | 401 kts | 322° |
| 2026-05-05 20:45 | 38.50079 | 25.66354 | 38051 ft | 401 kts | 321° |
| 2026-05-05 20:46 | 38.54519 | 25.62003 | 38068 ft | 407 kts | 321° |
| 2026-05-05 20:46 | 38.59037 | 25.57567 | 38067 ft | 410 kts | 321° |
| 2026-05-05 20:47 | 38.63579 | 25.53102 | 38060 ft | 412 kts | 321° |
| 2026-05-05 20:47 | 38.68105 | 25.48644 | 38077 ft | 413 kts | 322° |
| 2026-05-05 20:48 | 38.72663 | 25.44149 | 38065 ft | 413 kts | 322° |
| 2026-05-05 20:48 | 38.77194 | 25.39673 | 38061 ft | 413 kts | 322° |
| 2026-05-05 20:49 | 38.81750 | 25.35164 | 38062 ft | 413 kts | 322° |
| 2026-05-05 20:49 | 38.86268 | 25.30685 | 38056 ft | 411 kts | 321° |
| 2026-05-05 20:50 | 38.90800 | 25.26185 | 38058 ft | 410 kts | 321° |
| 2026-05-05 20:50 | 38.95288 | 25.21721 | 38067 ft | 409 kts | 322° |
| 2026-05-05 20:51 | 38.99794 | 25.17232 | 38058 ft | 408 kts | 322° |
| 2026-05-05 20:51 | 39.04263 | 25.12773 | 38060 ft | 408 kts | 321° |
| 2026-05-05 20:52 | 39.08752 | 25.08286 | 38061 ft | 408 kts | 321° |
| 2026-05-05 20:52 | 39.13215 | 25.03817 | 38060 ft | 408 kts | 321° |
| 2026-05-05 20:53 | 39.17699 | 24.99321 | 38054 ft | 408 kts | 322° |
| 2026-05-05 20:53 | 39.22184 | 24.94815 | 38064 ft | 409 kts | 322° |
| 2026-05-05 20:54 | 39.26674 | 24.90298 | 38057 ft | 409 kts | 322° |
| 2026-05-05 20:54 | 39.31139 | 24.85797 | 38054 ft | 409 kts | 322° |
| 2026-05-05 20:55 | 39.35646 | 24.81246 | 38054 ft | 410 kts | 322° |
| 2026-05-05 20:55 | 39.40108 | 24.76734 | 38054 ft | 410 kts | 322° |
| 2026-05-05 20:56 | 39.44610 | 24.72173 | 38055 ft | 410 kts | 322° |
| 2026-05-05 20:56 | 39.49080 | 24.67638 | 38068 ft | 410 kts | 322° |
| 2026-05-05 20:57 | 39.53579 | 24.63066 | 38050 ft | 410 kts | 322° |
| 2026-05-05 20:57 | 39.58042 | 24.58522 | 38048 ft | 410 kts | 322° |
| 2026-05-05 20:58 | 39.62526 | 24.53949 | 38049 ft | 409 kts | 322° |
| 2026-05-05 20:58 | 39.67004 | 24.49373 | 38048 ft | 409 kts | 322° |
| 2026-05-05 20:59 | 39.71447 | 24.44825 | 38049 ft | 408 kts | 322° |
| 2026-05-05 20:59 | 39.75919 | 24.40240 | 38065 ft | 408 kts | 322° |
| 2026-05-05 21:00 | 39.80351 | 24.35688 | 38053 ft | 407 kts | 322° |
| 2026-05-05 21:00 | 39.84801 | 24.31110 | 38048 ft | 406 kts | 322° |
| 2026-05-05 21:01 | 39.89239 | 24.26537 | 38047 ft | 406 kts | 322° |
| 2026-05-05 21:01 | 39.93636 | 24.21997 | 38052 ft | 405 kts | 322° |
| 2026-05-05 21:02 | 39.98053 | 24.17431 | 38051 ft | 404 kts | 322° |
| 2026-05-05 21:02 | 40.02463 | 24.12863 | 38076 ft | 406 kts | 322° |
| 2026-05-05 21:03 | 40.06886 | 24.08274 | 38058 ft | 409 kts | 322° |
| 2026-05-05 21:03 | 40.11323 | 24.03662 | 38047 ft | 404 kts | 321° |
| 2026-05-05 21:04 | 40.15686 | 23.99119 | 38048 ft | 401 kts | 321° |
| 2026-05-05 21:04 | 40.20041 | 23.94578 | 38050 ft | 398 kts | 321° |
| 2026-05-05 21:05 | 40.24345 | 23.90082 | 38056 ft | 397 kts | 321° |
| 2026-05-05 21:05 | 40.28675 | 23.85552 | 38058 ft | 398 kts | 321° |
| 2026-05-05 21:06 | 40.32998 | 23.81020 | 38057 ft | 400 kts | 321° |
| 2026-05-05 21:06 | 40.37372 | 23.76427 | 38054 ft | 403 kts | 321° |
| 2026-05-05 21:07 | 40.41770 | 23.71802 | 38055 ft | 405 kts | 321° |
| 2026-05-05 21:07 | 40.46155 | 23.67182 | 38048 ft | 407 kts | 321° |
| 2026-05-05 21:08 | 40.49833 | 23.63302 | 38058 ft | 407 kts | 321° |
| 2026-05-05 21:08 | 40.54234 | 23.58650 | 38064 ft | 407 kts | 321° |
| 2026-05-05 21:09 | 40.58665 | 23.53958 | 38048 ft | 407 kts | 321° |
| 2026-05-05 21:09 | 40.63057 | 23.49300 | 38053 ft | 406 kts | 321° |
| 2026-05-05 21:10 | 40.67464 | 23.44618 | 38045 ft | 406 kts | 321° |
| 2026-05-05 21:10 | 40.71823 | 23.39979 | 38045 ft | 403 kts | 321° |
| 2026-05-05 21:11 | 40.76186 | 23.35326 | 38041 ft | 402 kts | 321° |
| 2026-05-05 21:11 | 40.80530 | 23.30686 | 38049 ft | 400 kts | 321° |
| 2026-05-05 21:12 | 40.84833 | 23.26082 | 38040 ft | 399 kts | 320° |
| 2026-05-05 21:12 | 40.89149 | 23.21457 | 38044 ft | 399 kts | 320° |
| 2026-05-05 21:13 | 40.93465 | 23.16823 | 38040 ft | 399 kts | 320° |
| 2026-05-05 21:13 | 40.97761 | 23.12203 | 38042 ft | 400 kts | 320° |
| 2026-05-05 21:14 | 41.02097 | 23.07530 | 38046 ft | 400 kts | 320° |
| 2026-05-05 21:14 | 41.06430 | 23.02855 | 38054 ft | 401 kts | 320° |
| 2026-05-05 21:15 | 41.10645 | 22.98032 | 38036 ft | 402 kts | 312° |
| 2026-05-05 21:15 | 41.14250 | 22.92337 | 38037 ft | 403 kts | 310° |
| 2026-05-05 21:16 | 41.17830 | 22.86646 | 38036 ft | 404 kts | 310° |
| 2026-05-05 21:16 | 41.21458 | 22.80921 | 38040 ft | 404 kts | 310° |
| 2026-05-05 21:17 | 41.25068 | 22.75224 | 38029 ft | 404 kts | 311° |
| 2026-05-05 21:17 | 41.28820 | 22.69652 | 38034 ft | 403 kts | 313° |
| 2026-05-05 21:18 | 41.32597 | 22.64202 | 38022 ft | 402 kts | 313° |
| 2026-05-05 21:18 | 41.36376 | 22.58711 | 38025 ft | 401 kts | 312° |
| 2026-05-05 21:19 | 41.40103 | 22.53254 | 38032 ft | 400 kts | 312° |
| 2026-05-05 21:19 | 41.43849 | 22.47747 | 38032 ft | 400 kts | 312° |
| 2026-05-05 21:20 | 41.47562 | 22.42273 | 38021 ft | 400 kts | 312° |
| 2026-05-05 21:20 | 41.51299 | 22.36756 | 38024 ft | 400 kts | 312° |
| 2026-05-05 21:21 | 41.55043 | 22.31217 | 38023 ft | 401 kts | 312° |
| 2026-05-05 21:21 | 41.58764 | 22.25703 | 38020 ft | 402 kts | 312° |
| 2026-05-05 21:22 | 41.62518 | 22.20129 | 38019 ft | 403 kts | 312° |
| 2026-05-05 21:22 | 41.66279 | 22.14534 | 38013 ft | 404 kts | 312° |
| 2026-05-05 21:23 | 41.70025 | 22.08950 | 38016 ft | 405 kts | 312° |
| 2026-05-05 21:23 | 41.73800 | 22.03312 | 38011 ft | 406 kts | 312° |
| 2026-05-05 21:24 | 41.77549 | 21.97705 | 38016 ft | 406 kts | 312° |
| 2026-05-05 21:24 | 41.81327 | 21.92041 | 38019 ft | 406 kts | 312° |
| 2026-05-05 21:25 | 41.85074 | 21.86413 | 38032 ft | 406 kts | 312° |
| 2026-05-05 21:25 | 41.88843 | 21.80742 | 38039 ft | 405 kts | 312° |
| 2026-05-05 21:26 | 41.92576 | 21.75114 | 38044 ft | 405 kts | 311° |
| 2026-05-05 21:26 | 41.96327 | 21.69448 | 38047 ft | 405 kts | 311° |
| 2026-05-05 21:27 | 42.00041 | 21.63827 | 38052 ft | 404 kts | 311° |
| 2026-05-05 21:27 | 42.03777 | 21.58162 | 38052 ft | 404 kts | 311° |
| 2026-05-05 21:28 | 42.07492 | 21.52517 | 38022 ft | 404 kts | 311° |
| 2026-05-05 21:28 | 42.11227 | 21.46831 | 38025 ft | 404 kts | 311° |
| 2026-05-05 21:29 | 42.14937 | 21.41174 | 38026 ft | 404 kts | 311° |
| 2026-05-05 21:29 | 42.18633 | 21.35441 | 38036 ft | 404 kts | 310° |
| 2026-05-05 21:30 | 42.22276 | 21.29653 | 38046 ft | 404 kts | 310° |
| 2026-05-05 21:30 | 42.25916 | 21.23854 | 38051 ft | 404 kts | 310° |
| 2026-05-05 21:31 | 42.29534 | 21.18093 | 38056 ft | 404 kts | 310° |
| 2026-05-05 21:31 | 42.33183 | 21.12279 | 38057 ft | 404 kts | 310° |
| 2026-05-05 21:32 | 42.36820 | 21.06475 | 38071 ft | 404 kts | 310° |
| 2026-05-05 21:32 | 42.40430 | 21.00701 | 38064 ft | 404 kts | 310° |
| 2026-05-05 21:33 | 42.44057 | 20.94890 | 38068 ft | 403 kts | 310° |
| 2026-05-05 21:33 | 42.47658 | 20.89109 | 38081 ft | 403 kts | 310° |
| 2026-05-05 21:34 | 42.51273 | 20.83295 | 38075 ft | 403 kts | 310° |
| 2026-05-05 21:34 | 42.54895 | 20.77456 | 38063 ft | 404 kts | 310° |
| 2026-05-05 21:35 | 42.58512 | 20.71616 | 38074 ft | 404 kts | 310° |
| 2026-05-05 21:35 | 42.62112 | 20.65791 | 38074 ft | 405 kts | 309° |
| 2026-05-05 21:36 | 42.65736 | 20.59914 | 38068 ft | 406 kts | 309° |
| 2026-05-05 21:36 | 42.69367 | 20.54015 | 38074 ft | 406 kts | 309° |
| 2026-05-05 21:37 | 42.72999 | 20.48103 | 38070 ft | 407 kts | 309° |
| 2026-05-05 21:37 | 42.76611 | 20.42209 | 38083 ft | 407 kts | 309° |
| 2026-05-05 21:38 | 42.80244 | 20.36272 | 38069 ft | 408 kts | 309° |
| 2026-05-05 21:38 | 42.83950 | 20.30446 | 38074 ft | 409 kts | 316° |
| 2026-05-05 21:39 | 42.88328 | 20.25497 | 38080 ft | 411 kts | 319° |
| 2026-05-05 21:39 | 42.92781 | 20.20582 | 38079 ft | 411 kts | 319° |
| 2026-05-05 21:40 | 42.97204 | 20.15658 | 38079 ft | 412 kts | 319° |
| 2026-05-05 21:40 | 43.01638 | 20.10688 | 38074 ft | 412 kts | 319° |
| 2026-05-05 21:41 | 43.06073 | 20.05699 | 38077 ft | 412 kts | 319° |
| 2026-05-05 21:41 | 43.10476 | 20.00735 | 38075 ft | 412 kts | 319° |
| 2026-05-05 21:42 | 43.14900 | 19.95738 | 38080 ft | 411 kts | 319° |
| 2026-05-05 21:42 | 43.19318 | 19.90737 | 38080 ft | 411 kts | 319° |
| 2026-05-05 21:43 | 43.23711 | 19.85756 | 38078 ft | 411 kts | 318° |
| 2026-05-05 21:43 | 43.28135 | 19.80730 | 38069 ft | 412 kts | 318° |
| 2026-05-05 21:44 | 43.32533 | 19.75724 | 38079 ft | 412 kts | 318° |
| 2026-05-05 21:44 | 43.36949 | 19.70688 | 38069 ft | 413 kts | 318° |
| 2026-05-05 21:45 | 43.41347 | 19.65662 | 38074 ft | 413 kts | 318° |
| 2026-05-05 21:45 | 43.45781 | 19.60586 | 38066 ft | 414 kts | 318° |
| 2026-05-05 21:46 | 43.50218 | 19.55495 | 38068 ft | 415 kts | 318° |
| 2026-05-05 21:46 | 43.54629 | 19.50425 | 38070 ft | 415 kts | 317° |
| 2026-05-05 21:47 | 43.59073 | 19.45306 | 38075 ft | 415 kts | 317° |
| 2026-05-05 21:47 | 43.63511 | 19.40183 | 38056 ft | 416 kts | 317° |
| 2026-05-05 21:48 | 43.67938 | 19.35064 | 38063 ft | 416 kts | 317° |
| 2026-05-05 21:48 | 43.72360 | 19.29940 | 38062 ft | 416 kts | 317° |
| 2026-05-05 21:49 | 43.76805 | 19.24774 | 38054 ft | 416 kts | 316° |
| 2026-05-05 21:49 | 43.80832 | 19.19126 | 38064 ft | 413 kts | 310° |
| 2026-05-05 21:50 | 43.84675 | 19.13190 | 38055 ft | 414 kts | 310° |
| 2026-05-05 21:50 | 43.88532 | 19.07237 | 38049 ft | 415 kts | 310° |
| 2026-05-05 21:51 | 43.92415 | 19.01295 | 38045 ft | 416 kts | 310° |
| 2026-05-05 21:51 | 43.96289 | 18.95384 | 38041 ft | 416 kts | 310° |
| 2026-05-05 21:52 | 44.02154 | 18.86426 | 38039 ft | 417 kts | 310° |
| 2026-05-05 21:53 | 44.06032 | 18.80486 | 38039 ft | 417 kts | 310° |
| 2026-05-05 21:53 | 44.09935 | 18.74494 | 38042 ft | 417 kts | 310° |
| 2026-05-05 21:54 | 44.13810 | 18.68533 | 38025 ft | 417 kts | 310° |
| 2026-05-05 21:54 | 44.17048 | 18.63542 | 38022 ft | 417 kts | 310° |
| 2026-05-05 21:55 | 44.21564 | 18.56567 | 38032 ft | 415 kts | 310° |
| 2026-05-05 21:55 | 44.24787 | 18.51579 | 38034 ft | 414 kts | 309° |
| 2026-05-05 21:56 | 44.28657 | 18.45575 | 38025 ft | 415 kts | 309° |
| 2026-05-05 21:56 | 44.32507 | 18.39591 | 38017 ft | 416 kts | 309° |
| 2026-05-05 21:57 | 44.36384 | 18.33553 | 38016 ft | 417 kts | 309° |
| 2026-05-05 21:57 | 44.40259 | 18.27504 | 38012 ft | 416 kts | 309° |
| 2026-05-05 21:58 | 44.44098 | 18.21500 | 38017 ft | 416 kts | 309° |
| 2026-05-05 21:58 | 44.47967 | 18.15435 | 38012 ft | 417 kts | 309° |
| 2026-05-05 21:59 | 44.51834 | 18.09358 | 38009 ft | 417 kts | 309° |
| 2026-05-05 21:59 | 44.55674 | 18.03313 | 38009 ft | 418 kts | 309° |
| 2026-05-05 22:00 | 44.59544 | 17.97207 | 38001 ft | 418 kts | 309° |
| 2026-05-05 22:00 | 44.63411 | 17.91092 | 38005 ft | 418 kts | 309° |
| 2026-05-05 22:01 | 44.67256 | 17.84999 | 38003 ft | 418 kts | 309° |
| 2026-05-05 22:01 | 44.71117 | 17.78867 | 37996 ft | 418 kts | 309° |
| 2026-05-05 22:02 | 44.74959 | 17.72753 | 37992 ft | 418 kts | 309° |
| 2026-05-05 22:02 | 44.78815 | 17.66602 | 38008 ft | 418 kts | 309° |
| 2026-05-05 22:03 | 44.82667 | 17.60444 | 37990 ft | 418 kts | 309° |
| 2026-05-05 22:03 | 44.86495 | 17.54312 | 37995 ft | 418 kts | 309° |
| 2026-05-05 22:04 | 44.90338 | 17.48141 | 37993 ft | 418 kts | 309° |
| 2026-05-05 22:04 | 44.94152 | 17.42003 | 37991 ft | 418 kts | 309° |
| 2026-05-05 22:05 | 44.98000 | 17.35797 | 37993 ft | 418 kts | 309° |
| 2026-05-05 22:05 | 45.01811 | 17.29639 | 37989 ft | 418 kts | 309° |
| 2026-05-05 22:06 | 45.05649 | 17.23420 | 37999 ft | 418 kts | 309° |
| 2026-05-05 22:06 | 45.09485 | 17.17193 | 37991 ft | 419 kts | 309° |
| 2026-05-05 22:07 | 45.13296 | 17.10992 | 38005 ft | 420 kts | 308° |
| 2026-05-05 22:07 | 45.17141 | 17.04720 | 37995 ft | 421 kts | 308° |
| 2026-05-05 22:08 | 45.20990 | 16.98431 | 37992 ft | 421 kts | 308° |
| 2026-05-05 22:08 | 45.24942 | 16.92336 | 38000 ft | 422 kts | 313° |
| 2026-05-05 22:09 | 45.29183 | 16.86530 | 37986 ft | 423 kts | 313° |
| 2026-05-05 22:09 | 45.33435 | 16.80755 | 37990 ft | 423 kts | 313° |
| 2026-05-05 22:10 | 45.37643 | 16.74981 | 37995 ft | 422 kts | 313° |
| 2026-05-05 22:10 | 45.41847 | 16.69166 | 37990 ft | 422 kts | 313° |
| 2026-05-05 22:11 | 45.46054 | 16.63326 | 37984 ft | 422 kts | 313° |
| 2026-05-05 22:11 | 45.50259 | 16.57475 | 37989 ft | 421 kts | 313° |
| 2026-05-05 22:12 | 45.54433 | 16.51654 | 37981 ft | 421 kts | 313° |
| 2026-05-05 22:12 | 45.58631 | 16.45788 | 37992 ft | 421 kts | 313° |
| 2026-05-05 22:13 | 45.62824 | 16.39916 | 37979 ft | 421 kts | 313° |
| 2026-05-05 22:13 | 45.66994 | 16.34063 | 37988 ft | 422 kts | 313° |
| 2026-05-05 22:14 | 45.71183 | 16.28171 | 37976 ft | 422 kts | 313° |
| 2026-05-05 22:14 | 45.75346 | 16.22301 | 37967 ft | 422 kts | 313° |
| 2026-05-05 22:15 | 45.79526 | 16.16395 | 37962 ft | 422 kts | 313° |
| 2026-05-05 22:15 | 45.83708 | 16.10473 | 37976 ft | 422 kts | 312° |
| 2026-05-05 22:16 | 45.87874 | 16.04560 | 37974 ft | 423 kts | 312° |
| 2026-05-05 22:16 | 45.92045 | 15.98626 | 37980 ft | 424 kts | 312° |
| 2026-05-05 22:17 | 45.96245 | 15.92638 | 37977 ft | 426 kts | 313° |
| 2026-05-05 22:17 | 46.00461 | 15.86615 | 37974 ft | 427 kts | 313° |
| 2026-05-05 22:18 | 46.04657 | 15.80606 | 37968 ft | 427 kts | 312° |
| 2026-05-05 22:18 | 46.08873 | 15.74553 | 37986 ft | 428 kts | 312° |
| 2026-05-05 22:19 | 46.13107 | 15.68461 | 37971 ft | 429 kts | 312° |
| 2026-05-05 22:19 | 46.17320 | 15.62416 | 37959 ft | 430 kts | 315° |
| 2026-05-05 22:20 | 46.21882 | 15.56768 | 37966 ft | 432 kts | 317° |
| 2026-05-05 22:20 | 46.26502 | 15.51282 | 37948 ft | 432 kts | 317° |
| 2026-05-05 22:21 | 46.31149 | 15.45727 | 37951 ft | 432 kts | 317° |
| 2026-05-05 22:21 | 46.35743 | 15.40179 | 37954 ft | 431 kts | 317° |
| 2026-05-05 22:22 | 46.40349 | 15.34583 | 37945 ft | 432 kts | 317° |
| 2026-05-05 22:22 | 46.44967 | 15.28956 | 37928 ft | 433 kts | 317° |
| 2026-05-05 22:23 | 46.49561 | 15.23344 | 37936 ft | 434 kts | 317° |
| 2026-05-05 22:23 | 46.54190 | 15.17680 | 37928 ft | 434 kts | 317° |
| 2026-05-05 22:24 | 46.58785 | 15.12043 | 37954 ft | 435 kts | 317° |
| 2026-05-05 22:24 | 46.63428 | 15.06333 | 37946 ft | 437 kts | 317° |
| 2026-05-05 22:25 | 46.68060 | 15.00625 | 37930 ft | 439 kts | 317° |
| 2026-05-05 22:25 | 46.72743 | 14.94842 | 37945 ft | 440 kts | 317° |
| 2026-05-05 22:26 | 46.77401 | 14.89074 | 37923 ft | 443 kts | 317° |
| 2026-05-05 22:26 | 46.82108 | 14.83233 | 37923 ft | 444 kts | 316° |
| 2026-05-05 22:27 | 46.86804 | 14.77389 | 37922 ft | 445 kts | 316° |
| 2026-05-05 22:27 | 46.91530 | 14.71494 | 37929 ft | 445 kts | 316° |
| 2026-05-05 22:28 | 46.96225 | 14.65629 | 37933 ft | 445 kts | 316° |
| 2026-05-05 22:28 | 47.00942 | 14.59721 | 37923 ft | 446 kts | 316° |
| 2026-05-05 22:29 | 47.05672 | 14.53779 | 37933 ft | 446 kts | 316° |
| 2026-05-05 22:29 | 47.10358 | 14.47880 | 37929 ft | 447 kts | 316° |
| 2026-05-05 22:30 | 47.15091 | 14.41905 | 37922 ft | 448 kts | 316° |
| 2026-05-05 22:30 | 47.19806 | 14.35940 | 37922 ft | 448 kts | 316° |
| 2026-05-05 22:31 | 47.24518 | 14.29965 | 37917 ft | 448 kts | 316° |
| 2026-05-05 22:31 | 47.29250 | 14.23948 | 37909 ft | 448 kts | 315° |
| 2026-05-05 22:32 | 47.33947 | 14.17962 | 37911 ft | 448 kts | 315° |
| 2026-05-05 22:32 | 47.38668 | 14.11929 | 37913 ft | 449 kts | 315° |
| 2026-05-05 22:33 | 47.43396 | 14.05874 | 37915 ft | 448 kts | 315° |
| 2026-05-05 22:33 | 47.48089 | 13.99850 | 37907 ft | 448 kts | 315° |
| 2026-05-05 22:34 | 47.52797 | 13.93790 | 37894 ft | 449 kts | 315° |
| 2026-05-05 22:34 | 47.57517 | 13.87699 | 37891 ft | 450 kts | 314° |
| 2026-05-05 22:35 | 47.62246 | 13.81581 | 37888 ft | 450 kts | 314° |
| 2026-05-05 22:35 | 47.66969 | 13.75456 | 37895 ft | 451 kts | 314° |
| 2026-05-05 22:36 | 47.71665 | 13.69352 | 37887 ft | 451 kts | 314° |
| 2026-05-05 22:36 | 47.76394 | 13.63189 | 37872 ft | 451 kts | 314° |
| 2026-05-05 22:37 | 47.81122 | 13.57011 | 37887 ft | 452 kts | 314° |
| 2026-05-05 22:37 | 47.85827 | 13.50848 | 37880 ft | 452 kts | 314° |
| 2026-05-05 22:38 | 47.90559 | 13.44635 | 37880 ft | 452 kts | 314° |
| 2026-05-05 22:38 | 47.95254 | 13.38455 | 37885 ft | 452 kts | 314° |
| 2026-05-05 22:39 | 47.99968 | 13.32233 | 37884 ft | 452 kts | 314° |
| 2026-05-05 22:39 | 48.04668 | 13.26014 | 37899 ft | 452 kts | 314° |
| 2026-05-05 22:40 | 48.08592 | 13.20808 | 37897 ft | 453 kts | 314° |
| 2026-05-05 22:40 | 48.13310 | 13.14535 | 37880 ft | 453 kts | 314° |
| 2026-05-05 22:41 | 48.18034 | 13.08240 | 37880 ft | 453 kts | 314° |
| 2026-05-05 22:41 | 48.22748 | 13.01932 | 37871 ft | 453 kts | 312° |
| 2026-05-05 22:42 | 48.26978 | 12.95111 | 37908 ft | 448 kts | 306° |
| 2026-05-05 22:42 | 48.31014 | 12.87953 | 37889 ft | 449 kts | 305° |
| 2026-05-05 22:43 | 48.35071 | 12.80773 | 37878 ft | 449 kts | 306° |
| 2026-05-05 22:43 | 48.39144 | 12.73643 | 37879 ft | 449 kts | 306° |
| 2026-05-05 22:44 | 48.43218 | 12.66536 | 37880 ft | 450 kts | 306° |
| 2026-05-05 22:44 | 48.47313 | 12.59385 | 37876 ft | 450 kts | 306° |
| 2026-05-05 22:45 | 48.51373 | 12.52272 | 37878 ft | 450 kts | 306° |
| 2026-05-05 22:45 | 48.55463 | 12.45084 | 37878 ft | 450 kts | 306° |
| 2026-05-05 22:46 | 48.59516 | 12.37942 | 37873 ft | 450 kts | 306° |
| 2026-05-05 22:46 | 48.63600 | 12.30726 | 37877 ft | 450 kts | 306° |
| 2026-05-05 22:47 | 48.67646 | 12.23557 | 37899 ft | 450 kts | 306° |
| 2026-05-05 22:47 | 48.71732 | 12.16297 | 37882 ft | 451 kts | 306° |
| 2026-05-05 22:48 | 48.75785 | 12.09078 | 37875 ft | 452 kts | 306° |
| 2026-05-05 22:48 | 48.79865 | 12.01789 | 37868 ft | 452 kts | 306° |
| 2026-05-05 22:49 | 48.83925 | 11.94517 | 37865 ft | 452 kts | 306° |
| 2026-05-05 22:49 | 48.87967 | 11.87257 | 37882 ft | 453 kts | 306° |
| 2026-05-05 22:50 | 48.92040 | 11.79920 | 37868 ft | 454 kts | 306° |
| 2026-05-05 22:50 | 48.96127 | 11.72539 | 37866 ft | 455 kts | 306° |
| 2026-05-05 22:51 | 49.00181 | 11.65196 | 37850 ft | 456 kts | 306° |
| 2026-05-05 22:51 | 49.04262 | 11.57784 | 37852 ft | 456 kts | 306° |
| 2026-05-05 22:52 | 49.08350 | 11.50338 | 37873 ft | 457 kts | 306° |
| 2026-05-05 22:52 | 49.12416 | 11.42911 | 37867 ft | 458 kts | 306° |
| 2026-05-05 22:53 | 49.16505 | 11.35421 | 37857 ft | 458 kts | 306° |
| 2026-05-05 22:53 | 49.20590 | 11.27918 | 37870 ft | 458 kts | 306° |
| 2026-05-05 22:54 | 49.24650 | 11.20439 | 37862 ft | 459 kts | 306° |
| 2026-05-05 22:54 | 49.28733 | 11.12894 | 37880 ft | 460 kts | 306° |
| 2026-05-05 22:55 | 49.32794 | 11.05370 | 37872 ft | 460 kts | 306° |
| 2026-05-05 22:55 | 49.36876 | 10.97788 | 37860 ft | 460 kts | 306° |
| 2026-05-05 22:56 | 49.40926 | 10.90199 | 37857 ft | 460 kts | 305° |
| 2026-05-05 22:56 | 49.44930 | 10.82526 | 37863 ft | 460 kts | 304° |
| 2026-05-05 22:57 | 49.48926 | 10.74817 | 37851 ft | 460 kts | 304° |
| 2026-05-05 22:57 | 49.52893 | 10.67160 | 37835 ft | 459 kts | 304° |
| 2026-05-05 22:58 | 49.56885 | 10.59444 | 37834 ft | 459 kts | 304° |
| 2026-05-05 22:58 | 49.60836 | 10.51790 | 37835 ft | 459 kts | 304° |
| 2026-05-05 22:59 | 49.64806 | 10.44074 | 37830 ft | 458 kts | 304° |
| 2026-05-05 22:59 | 49.68765 | 10.36358 | 37843 ft | 458 kts | 304° |
| 2026-05-05 23:00 | 49.74671 | 10.24805 | 37822 ft | 458 kts | 304° |
| 2026-05-05 23:00 | 49.78621 | 10.17050 | 37823 ft | 458 kts | 304° |
| 2026-05-05 23:01 | 49.82565 | 10.09284 | 37815 ft | 458 kts | 304° |
| 2026-05-05 23:01 | 49.86506 | 10.01501 | 37835 ft | 458 kts | 304° |
| 2026-05-05 23:02 | 49.90419 | 9.93749 | 37821 ft | 459 kts | 304° |
| 2026-05-05 23:02 | 49.94333 | 9.85972 | 37813 ft | 459 kts | 304° |
| 2026-05-05 23:03 | 49.98272 | 9.78125 | 37812 ft | 459 kts | 304° |
| 2026-05-05 23:03 | 50.02184 | 9.70307 | 37810 ft | 459 kts | 304° |
| 2026-05-05 23:04 | 50.06109 | 9.62439 | 37838 ft | 460 kts | 304° |
| 2026-05-05 23:04 | 50.10012 | 9.54592 | 37819 ft | 461 kts | 304° |
| 2026-05-05 23:05 | 50.13938 | 9.46676 | 37809 ft | 461 kts | 304° |
| 2026-05-05 23:05 | 50.17869 | 9.38726 | 37810 ft | 461 kts | 304° |
| 2026-05-05 23:06 | 50.21757 | 9.30838 | 37803 ft | 461 kts | 304° |
| 2026-05-05 23:06 | 50.25672 | 9.22872 | 37802 ft | 461 kts | 304° |
| 2026-05-05 23:07 | 50.29581 | 9.14895 | 37797 ft | 461 kts | 304° |
| 2026-05-05 23:07 | 50.33463 | 9.06948 | 37793 ft | 461 kts | 304° |
| 2026-05-05 23:08 | 50.37339 | 8.98989 | 37811 ft | 461 kts | 304° |
| 2026-05-05 23:08 | 50.41227 | 8.90981 | 37795 ft | 461 kts | 304° |
| 2026-05-05 23:09 | 50.45110 | 8.82958 | 37796 ft | 461 kts | 304° |
| 2026-05-05 23:09 | 50.48991 | 8.74915 | 37795 ft | 461 kts | 304° |
| 2026-05-05 23:10 | 50.52844 | 8.66908 | 37792 ft | 461 kts | 304° |
| 2026-05-05 23:10 | 50.56704 | 8.58859 | 37794 ft | 460 kts | 304° |
| 2026-05-05 23:11 | 50.60542 | 8.50831 | 37794 ft | 461 kts | 304° |
| 2026-05-05 23:11 | 50.64395 | 8.42749 | 37800 ft | 461 kts | 304° |
| 2026-05-05 23:12 | 50.68218 | 8.34703 | 37804 ft | 461 kts | 304° |
| 2026-05-05 23:12 | 50.72053 | 8.26609 | 37800 ft | 460 kts | 304° |
| 2026-05-05 23:13 | 50.75882 | 8.18502 | 37803 ft | 460 kts | 304° |
| 2026-05-05 23:13 | 50.79706 | 8.10378 | 37802 ft | 459 kts | 304° |
| 2026-05-05 23:14 | 50.83493 | 8.02309 | 37798 ft | 459 kts | 304° |
| 2026-05-05 23:14 | 50.87300 | 7.94174 | 37810 ft | 459 kts | 304° |
| 2026-05-05 23:15 | 50.91098 | 7.86032 | 37803 ft | 459 kts | 304° |
| 2026-05-05 23:15 | 50.94863 | 7.77934 | 37803 ft | 458 kts | 304° |
| 2026-05-05 23:16 | 50.98642 | 7.69782 | 37810 ft | 458 kts | 304° |
| 2026-05-05 23:16 | 51.02423 | 7.61599 | 37807 ft | 458 kts | 304° |
| 2026-05-05 23:17 | 51.06168 | 7.53468 | 37823 ft | 459 kts | 304° |
| 2026-05-05 23:17 | 51.09935 | 7.45265 | 37823 ft | 459 kts | 304° |
| 2026-05-05 23:18 | 51.13693 | 7.37056 | 37824 ft | 459 kts | 304° |
| 2026-05-05 23:18 | 51.17455 | 7.28812 | 37811 ft | 459 kts | 303° |
| 2026-05-05 23:19 | 51.21208 | 7.20562 | 37821 ft | 459 kts | 303° |
| 2026-05-05 23:19 | 51.24929 | 7.12354 | 37837 ft | 459 kts | 303° |
| 2026-05-05 23:20 | 51.28672 | 7.04074 | 37827 ft | 459 kts | 303° |
| 2026-05-05 23:20 | 51.32394 | 6.95812 | 37829 ft | 459 kts | 303° |
| 2026-05-05 23:21 | 51.36130 | 6.87493 | 37820 ft | 459 kts | 303° |
| 2026-05-05 23:21 | 51.39831 | 6.79226 | 37825 ft | 459 kts | 303° |
| 2026-05-05 23:22 | 51.43549 | 6.70896 | 37836 ft | 459 kts | 303° |
| 2026-05-05 23:22 | 51.47258 | 6.62557 | 37823 ft | 459 kts | 303° |
| 2026-05-05 23:23 | 51.50937 | 6.54260 | 37844 ft | 458 kts | 303° |
| 2026-05-05 23:23 | 51.54634 | 6.45894 | 37851 ft | 458 kts | 303° |
| 2026-05-05 23:24 | 51.58306 | 6.37558 | 37851 ft | 458 kts | 303° |
| 2026-05-05 23:24 | 51.61983 | 6.29185 | 37857 ft | 457 kts | 303° |
| 2026-05-05 23:25 | 51.65652 | 6.20803 | 37868 ft | 457 kts | 303° |
| 2026-05-05 23:25 | 51.69288 | 6.12469 | 37854 ft | 456 kts | 303° |
| 2026-05-05 23:26 | 51.72318 | 6.05503 | 37856 ft | 455 kts | 303° |
| 2026-05-05 23:26 | 51.75951 | 5.97127 | 37862 ft | 455 kts | 302° |
| 2026-05-05 23:27 | 51.79577 | 5.88739 | 37862 ft | 454 kts | 302° |
| 2026-05-05 23:27 | 51.83165 | 5.80412 | 37873 ft | 453 kts | 302° |
| 2026-05-05 23:28 | 51.86769 | 5.72021 | 37866 ft | 453 kts | 302° |
| 2026-05-05 23:28 | 51.90343 | 5.63672 | 37877 ft | 452 kts | 302° |
| 2026-05-05 23:29 | 51.93930 | 5.55264 | 37883 ft | 452 kts | 302° |
| 2026-05-05 23:29 | 51.97486 | 5.46905 | 37886 ft | 452 kts | 302° |
| 2026-05-05 23:30 | 52.01059 | 5.38475 | 37901 ft | 452 kts | 302° |
| 2026-05-05 23:30 | 52.04603 | 5.30088 | 37889 ft | 452 kts | 302° |
| 2026-05-05 23:31 | 52.08162 | 5.21638 | 37890 ft | 452 kts | 302° |
| 2026-05-05 23:31 | 52.11694 | 5.13224 | 37894 ft | 452 kts | 302° |
| 2026-05-05 23:32 | 52.15241 | 5.04747 | 37900 ft | 452 kts | 302° |
| 2026-05-05 23:32 | 52.18775 | 4.96273 | 37915 ft | 451 kts | 302° |
| 2026-05-05 23:33 | 52.22277 | 4.87847 | 37915 ft | 451 kts | 302° |
| 2026-05-05 23:33 | 52.25791 | 4.79364 | 37910 ft | 450 kts | 302° |
| 2026-05-05 23:34 | 52.29293 | 4.70883 | 37912 ft | 449 kts | 301° |
| 2026-05-05 23:34 | 52.32764 | 4.62450 | 37900 ft | 448 kts | 301° |
| 2026-05-05 23:35 | 52.36237 | 4.53983 | 37910 ft | 448 kts | 301° |
| 2026-05-05 23:35 | 52.39706 | 4.45497 | 37911 ft | 447 kts | 301° |
| 2026-05-05 23:36 | 52.43159 | 4.37023 | 37921 ft | 447 kts | 301° |
| 2026-05-05 23:36 | 52.46585 | 4.28588 | 37927 ft | 447 kts | 301° |
| 2026-05-05 23:37 | 52.50022 | 4.20096 | 37923 ft | 447 kts | 301° |
| 2026-05-05 23:37 | 52.53458 | 4.11579 | 37932 ft | 447 kts | 301° |
| 2026-05-05 23:38 | 52.56869 | 4.03094 | 37934 ft | 447 kts | 301° |
| 2026-05-05 23:38 | 52.60298 | 3.94539 | 37951 ft | 447 kts | 301° |
| 2026-05-05 23:39 | 52.63699 | 3.86023 | 37941 ft | 447 kts | 301° |
| 2026-05-05 23:39 | 52.67116 | 3.77440 | 37951 ft | 447 kts | 300° |
| 2026-05-05 23:40 | 52.70525 | 3.68844 | 37951 ft | 447 kts | 300° |
| 2026-05-05 23:40 | 52.73905 | 3.60297 | 37963 ft | 447 kts | 300° |
| 2026-05-05 23:41 | 52.77295 | 3.51694 | 37969 ft | 446 kts | 300° |
| 2026-05-05 23:41 | 52.80683 | 3.43066 | 37953 ft | 446 kts | 300° |
| 2026-05-05 23:42 | 52.84030 | 3.34512 | 37956 ft | 445 kts | 300° |
| 2026-05-05 23:42 | 52.87372 | 3.25944 | 37959 ft | 444 kts | 300° |
| 2026-05-05 23:43 | 52.90683 | 3.17292 | 37944 ft | 441 kts | 295° |
| 2026-05-05 23:43 | 52.92744 | 3.07845 | 37961 ft | 434 kts | 280° |
| 2026-05-05 23:44 | 52.93979 | 2.98104 | 37954 ft | 434 kts | 279° |
| 2026-05-05 23:44 | 52.95209 | 2.88283 | 37969 ft | 434 kts | 279° |
| 2026-05-05 23:45 | 52.96467 | 2.78479 | 37960 ft | 434 kts | 279° |
| 2026-05-05 23:45 | 52.97734 | 2.68672 | 37958 ft | 434 kts | 279° |
| 2026-05-05 23:46 | 52.98988 | 2.58914 | 37976 ft | 435 kts | 279° |
| 2026-05-05 23:46 | 53.00243 | 2.49077 | 37973 ft | 435 kts | 280° |
| 2026-05-05 23:47 | 53.01481 | 2.39303 | 37968 ft | 435 kts | 279° |
| 2026-05-05 23:47 | 53.02718 | 2.29461 | 37969 ft | 434 kts | 279° |
| 2026-05-05 23:48 | 53.03947 | 2.19614 | 37984 ft | 434 kts | 279° |
| 2026-05-05 23:48 | 53.05161 | 2.09826 | 37984 ft | 434 kts | 279° |
| 2026-05-05 23:49 | 53.06376 | 1.99968 | 37986 ft | 434 kts | 279° |
| 2026-05-05 23:49 | 53.07582 | 1.90121 | 37981 ft | 434 kts | 279° |
| 2026-05-05 23:50 | 53.08774 | 1.80319 | 37990 ft | 434 kts | 279° |
| 2026-05-05 23:50 | 53.09962 | 1.70482 | 37989 ft | 434 kts | 279° |
| 2026-05-05 23:51 | 53.11144 | 1.60620 | 37993 ft | 434 kts | 279° |
| 2026-05-05 23:51 | 53.12309 | 1.50821 | 37998 ft | 433 kts | 279° |
| 2026-05-05 23:52 | 53.13475 | 1.40945 | 38000 ft | 433 kts | 279° |
| 2026-05-05 23:52 | 53.14625 | 1.31132 | 37997 ft | 433 kts | 279° |
| 2026-05-05 23:53 | 53.15772 | 1.21265 | 38005 ft | 433 kts | 279° |
| 2026-05-05 23:53 | 53.16911 | 1.11399 | 38007 ft | 433 kts | 279° |
| 2026-05-05 23:54 | 53.18032 | 1.01601 | 38015 ft | 432 kts | 279° |
| 2026-05-05 23:54 | 53.19153 | 0.91739 | 38011 ft | 432 kts | 279° |
| 2026-05-05 23:55 | 53.20265 | 0.81873 | 38012 ft | 432 kts | 279° |
| 2026-05-05 23:55 | 53.21361 | 0.72084 | 37838 ft | 434 kts | 279° |
| 2026-05-05 23:56 | 53.21915 | 0.67104 | 37333 ft | 435 kts | 279° |
| 2026-05-05 23:56 | 53.22465 | 0.62145 | 36750 ft | 433 kts | 278° |
| 2026-05-05 23:56 | 53.23012 | 0.57195 | 36173 ft | 432 kts | 278° |
| 2026-05-05 23:56 | 53.23555 | 0.52258 | 35543 ft | 433 kts | 278° |
| 2026-05-05 23:57 | 53.24099 | 0.47293 | 34883 ft | 434 kts | 279° |
| 2026-05-05 23:57 | 53.24641 | 0.42328 | 34226 ft | 436 kts | 279° |
| 2026-05-05 23:57 | 53.25181 | 0.37334 | 33416 ft | 439 kts | 278° |
| 2026-05-05 23:57 | 53.25712 | 0.32376 | 32681 ft | 439 kts | 279° |
| 2026-05-05 23:58 | 53.26250 | 0.27341 | 31944 ft | 439 kts | 279° |
| 2026-05-05 23:58 | 53.26787 | 0.22289 | 31187 ft | 440 kts | 278° |
| 2026-05-05 23:58 | 53.27325 | 0.17230 | 30418 ft | 441 kts | 278° |
| 2026-05-05 23:58 | 53.27859 | 0.12178 | 29536 ft | 442 kts | 278° |
| 2026-05-05 23:59 | 53.28383 | 0.07214 | 28952 ft | 435 kts | 279° |
| 2026-05-05 23:59 | 53.29117 | 0.02329 | 28331 ft | 432 kts | 287° |
| 2026-05-05 23:59 | 53.30288 | -0.02275 | 27747 ft | 428 kts | 294° |
| 2026-05-05 23:59 | 53.31611 | -0.06697 | 27170 ft | 423 kts | 295° |
| 2026-05-06 00:00 | 53.32928 | -0.11068 | 26595 ft | 418 kts | 295° |
| 2026-05-06 00:00 | 53.34222 | -0.15410 | 26034 ft | 414 kts | 294° |
| 2026-05-06 00:00 | 53.35491 | -0.19726 | 25479 ft | 410 kts | 294° |
| 2026-05-06 00:00 | 53.36720 | -0.23950 | 24938 ft | 406 kts | 294° |
| 2026-05-06 00:01 | 53.37951 | -0.28197 | 24401 ft | 403 kts | 294° |
| 2026-05-06 00:01 | 53.39169 | -0.32412 | 23850 ft | 400 kts | 294° |
| 2026-05-06 00:01 | 53.40379 | -0.36602 | 23228 ft | 397 kts | 294° |
| 2026-05-06 00:01 | 53.41578 | -0.40763 | 22615 ft | 394 kts | 294° |
| 2026-05-06 00:02 | 53.42747 | -0.44821 | 22081 ft | 389 kts | 294° |
| 2026-05-06 00:02 | 53.43917 | -0.48886 | 21526 ft | 385 kts | 294° |
| 2026-05-06 00:02 | 53.45072 | -0.52907 | 20993 ft | 381 kts | 294° |
| 2026-05-06 00:02 | 53.46216 | -0.56898 | 20458 ft | 378 kts | 294° |
| 2026-05-06 00:03 | 53.47310 | -0.60727 | 19951 ft | 374 kts | 294° |
| 2026-05-06 00:03 | 53.48430 | -0.64659 | 19430 ft | 372 kts | 294° |
| 2026-05-06 00:03 | 53.49540 | -0.68561 | 18915 ft | 369 kts | 294° |
| 2026-05-06 00:03 | 53.50641 | -0.72433 | 18403 ft | 366 kts | 294° |
| 2026-05-06 00:04 | 53.51740 | -0.76309 | 17816 ft | 364 kts | 294° |
| 2026-05-06 00:04 | 53.52812 | -0.80093 | 17274 ft | 361 kts | 294° |
| 2026-05-06 00:04 | 53.53891 | -0.83889 | 16752 ft | 358 kts | 294° |
| 2026-05-06 00:04 | 53.54964 | -0.87663 | 16243 ft | 355 kts | 294° |
| 2026-05-06 00:05 | 53.57066 | -0.95072 | 15245 ft | 349 kts | 295° |
| 2026-05-06 00:05 | 53.58110 | -0.98757 | 14751 ft | 347 kts | 295° |
| 2026-05-06 00:05 | 53.59141 | -1.02408 | 14255 ft | 344 kts | 295° |
| 2026-05-06 00:06 | 53.60167 | -1.06046 | 13769 ft | 342 kts | 295° |
| 2026-05-06 00:06 | 53.61046 | -1.09762 | 13217 ft | 340 kts | 286° |
| 2026-05-06 00:06 | 53.61587 | -1.13620 | 12723 ft | 337 kts | 283° |
| 2026-05-06 00:06 | 53.62081 | -1.17406 | 12286 ft | 333 kts | 283° |
| 2026-05-06 00:07 | 53.62580 | -1.21159 | 11819 ft | 324 kts | 283° |
| 2026-05-06 00:07 | 53.63073 | -1.24821 | 11356 ft | 316 kts | 282° |
| 2026-05-06 00:07 | 53.63451 | -1.28426 | 10911 ft | 309 kts | 281° |
| 2026-05-06 00:07 | 53.63807 | -1.31975 | 10467 ft | 304 kts | 280° |
| 2026-05-06 00:08 | 53.64150 | -1.35461 | 9971 ft | 298 kts | 280° |
| 2026-05-06 00:08 | 53.64483 | -1.38877 | 9432 ft | 292 kts | 282° |
| 2026-05-06 00:08 | 53.65066 | -1.42103 | 8907 ft | 285 kts | 296° |
| 2026-05-06 00:08 | 53.66097 | -1.44884 | 8443 ft | 277 kts | 314° |
| 2026-05-06 00:09 | 53.67644 | -1.46664 | 7979 ft | 271 kts | 340° |
| 2026-05-06 00:09 | 53.69497 | -1.47137 | 7453 ft | 270 kts | 358° |
| 2026-05-06 00:09 | 53.71375 | -1.47158 | 6846 ft | 270 kts | 354° |
| 2026-05-06 00:09 | 53.73107 | -1.48189 | 6540 ft | 260 kts | 326° |
| 2026-05-06 00:10 | 53.73961 | -1.49578 | 6343 ft | 257 kts | 307° |
| 2026-05-06 00:10 | 53.74635 | -1.53373 | 5988 ft | 262 kts | 270° |
| 2026-05-06 00:10 | 53.74105 | -1.56325 | 5715 ft | 268 kts | 241° |
| 2026-05-06 00:10 | 53.72785 | -1.58550 | 5457 ft | 271 kts | 212° |
| 2026-05-06 00:11 | 53.71625 | -1.59333 | 5276 ft | 271 kts | 192° |
| 2026-05-06 00:11 | 53.69760 | -1.59254 | 5018 ft | 268 kts | 162° |
| 2026-05-06 00:11 | 53.68175 | -1.57725 | 4780 ft | 259 kts | 131° |
| 2026-05-06 00:11 | 53.67276 | -1.55212 | 4579 ft | 247 kts | 101° |
| 2026-05-06 00:12 | 53.67257 | -1.52464 | 4410 ft | 232 kts | 69° |
| 2026-05-06 00:12 | 53.68082 | -1.50214 | 4260 ft | 225 kts | 38° |
| 2026-05-06 00:12 | 53.69453 | -1.49152 | 4120 ft | 215 kts | 7° |
| 2026-05-06 00:12 | 53.70910 | -1.49051 | 4020 ft | 204 kts | 1° |
| 2026-05-06 00:13 | 53.72300 | -1.49073 | 3839 ft | 196 kts | 0° |
| 2026-05-06 00:13 | 53.73629 | -1.49113 | 3661 ft | 190 kts | 0° |
| 2026-05-06 00:13 | 53.74931 | -1.49347 | 3429 ft | 187 kts | 349° |
| 2026-05-06 00:13 | 53.76141 | -1.50080 | 3193 ft | 187 kts | 329° |
| 2026-05-06 00:14 | 53.77098 | -1.51517 | 3070 ft | 179 kts | 322° |
| 2026-05-06 00:14 | 53.78012 | -1.52860 | 2926 ft | 171 kts | 323° |
| 2026-05-06 00:14 | 53.78893 | -1.54189 | 2690 ft | 168 kts | 322° |
| 2026-05-06 00:14 | 53.79752 | -1.55511 | 2458 ft | 165 kts | 322° |
| 2026-05-06 00:15 | 53.80592 | -1.56809 | 2217 ft | 162 kts | 323° |
| 2026-05-06 00:15 | 53.81415 | -1.58081 | 1997 ft | 157 kts | 323° |
| 2026-05-06 00:15 | 53.82193 | -1.59281 | 1830 ft | 147 kts | 324° |
| 2026-05-06 00:15 | 53.82964 | -1.60467 | 1572 ft | 149 kts | 323° |
| 2026-05-06 00:16 | 53.83713 | -1.61631 | 1336 ft | 148 kts | 321° |
| 2026-05-06 00:16 | 53.84473 | -1.62806 | 1119 ft | 147 kts | 322° |
| 2026-05-06 00:16 | 53.85223 | -1.63968 | 920 ft | 146 kts | 321° |
| 2026-05-06 00:16 | 53.85973 | -1.65113 | 723 ft | 144 kts | 321° |
| 2026-05-06 00:17 | 53.86642 | -1.66140 | 665 ft | 103 kts | 318° |
| 2026-05-06 00:17 | 53.86984 | -1.66666 | 672 ft | 29 kts | 317° |
| 2026-05-06 00:17 | 53.87075 | -1.66779 | 679 ft | 11 kts | 337° |
| 2026-05-06 00:17 | 53.87087 | -1.66818 | 679 ft | 4 kts | 209° |
| 2026-05-06 00:18 | 53.87060 | -1.66786 | 677 ft | 7 kts | 137° |
| 2026-05-06 00:18 | 53.87004 | -1.66698 | 674 ft | 15 kts | 137° |
| 2026-05-06 00:18 | 53.86958 | -1.66583 | 671 ft | 11 kts | 78° |
| 2026-05-06 00:18 | 53.86998 | -1.66485 | 672 ft | 10 kts | 79° |
| 2026-05-06 00:19 | 53.86973 | -1.66371 | 669 ft | 11 kts | 118° |
| 2026-05-06 00:19 | 53.86918 | -1.66246 | 665 ft | 14 kts | 138° |
| 2026-05-06 00:19 | 53.86851 | -1.66143 | 666 ft | 13 kts | 138° |
| 2026-05-06 00:19 | 53.86815 | -1.66044 | 665 ft | 9 kts | 91° |
| 2026-05-06 00:20 | 53.86814 | -1.65938 | 664 ft | 9 kts | 91° |
| 2026-05-06 00:20 | 53.86830 | -1.65903 | 664 ft | 4 kts | 11° |
| 2026-05-06 00:20 | 53.86855 | -1.65899 | 664 ft | 2 kts | 2° |
| 2026-05-06 00:20 | 53.86860 | -1.65899 | 664 ft | 0 kts | 2° |